Time;durP1;ratioP1;P1;durP2;ratioP2;P2;SDS_P1;SDS_P2;PMS_P1;PMS_P2;Temp;Humidity;BMP_temperature;BMP_pressure;BME280_temperature;BME280_humidity;BME280_pressure;Samples;Min_cycle;Max_cycle;Signal;HPM_P1;HPM_P2
2023/12/12 00:02:08;;;;;;;3.17;1.30;;;22.80;49.30;;;;;;6151081;28;80697;-61
2023/12/12 00:05:09;;;;;;;2.05;1.40;;;22.80;49.20;;;;;;6174942;28;83900;-61
2023/12/12 00:08:09;;;;;;;1.70;0.98;;;22.80;49.10;;;;;;6173239;28;81882;-61
2023/12/12 00:11:10;;;;;;;2.38;1.20;;;22.80;49.10;;;;;;6173212;28;81380;-61
2023/12/12 00:14:10;;;;;;;1.75;1.00;;;22.80;48.70;;;;;;6173691;28;81160;-62
2023/12/12 00:17:11;;;;;;;1.88;1.02;;;22.80;48.60;;;;;;6173197;28;81123;-62
2023/12/12 00:20:11;;;;;;;2.05;1.05;;;22.80;48.40;;;;;;6172060;28;84550;-62
2023/12/12 00:23:12;;;;;;;1.17;1.00;;;22.80;48.30;;;;;;6174272;28;80574;-60
2023/12/12 00:26:12;;;;;;;1.20;0.90;;;22.80;48.40;;;;;;6167999;28;80664;-60
2023/12/12 00:29:13;;;;;;;2.13;1.20;;;22.80;48.30;;;;;;6172299;28;80559;-59
2023/12/12 00:32:13;;;;;;;3.92;1.08;;;22.80;48.50;;;;;;6172278;28;80535;-58
2023/12/12 00:35:14;;;;;;;1.30;0.88;;;22.80;48.30;;;;;;6172436;28;80872;-58
2023/12/12 00:38:14;;;;;;;1.40;1.05;;;22.80;48.30;;;;;;6174028;28;81677;-58
2023/12/12 00:41:15;;;;;;;1.85;1.20;;;22.80;48.30;;;;;;6174698;28;80215;-58
2023/12/12 00:44:15;;;;;;;1.55;0.93;;;22.80;48.20;;;;;;6173819;28;81184;-61
2023/12/12 00:47:16;;;;;;;1.30;0.80;;;22.80;48.30;;;;;;6174589;28;80147;-60
2023/12/12 00:50:16;;;;;;;2.55;1.00;;;22.80;48.20;;;;;;6175453;28;84580;-60
2023/12/12 00:53:17;;;;;;;1.85;1.10;;;22.80;48.20;;;;;;6174564;28;83095;-61
2023/12/12 00:56:17;;;;;;;1.77;1.15;;;22.80;48.20;;;;;;6173838;28;81835;-61
2023/12/12 00:59:18;;;;;;;1.40;1.10;;;22.80;48.10;;;;;;6178705;28;80940;-61
2023/12/12 01:02:18;;;;;;;1.60;0.95;;;22.80;48.10;;;;;;6170210;28;80715;-60
2023/12/12 01:05:19;;;;;;;1.35;0.88;;;22.80;48.10;;;;;;6150956;28;80480;-59
2023/12/12 01:08:19;;;;;;;1.02;0.90;;;22.80;48.10;;;;;;6150713;28;81033;-59
2023/12/12 01:11:20;;;;;;;1.98;1.05;;;22.80;48.10;;;;;;6151274;28;80679;-60
2023/12/12 01:14:20;;;;;;;2.60;1.20;;;22.80;48.00;;;;;;6159212;28;80739;-59
2023/12/12 01:17:21;;;;;;;1.63;1.05;;;22.80;48.00;;;;;;6174810;28;81252;-59
2023/12/12 01:20:21;;;;;;;1.45;1.02;;;22.80;48.00;;;;;;6163967;28;87768;-62
2023/12/12 01:23:22;;;;;;;1.20;0.70;;;22.80;47.90;;;;;;6150668;28;80944;-62
2023/12/12 01:26:22;;;;;;;1.08;0.70;;;22.80;48.10;;;;;;6158862;28;81003;-61
2023/12/12 01:29:23;;;;;;;1.95;1.00;;;22.80;47.70;;;;;;6161510;28;80800;-62
2023/12/12 01:32:23;;;;;;;1.10;0.80;;;22.80;47.60;;;;;;6174190;28;80959;-62
2023/12/12 01:35:24;;;;;;;2.13;0.82;;;22.80;47.60;;;;;;6164565;28;82949;-62
2023/12/12 01:38:25;;;;;;;2.75;1.27;;;22.80;47.60;;;;;;6155038;28;80582;-61
2023/12/12 01:41:26;;;;;;;2.05;1.08;;;22.80;47.50;;;;;;6173977;28;80532;-62
2023/12/12 01:44:26;;;;;;;1.35;1.00;;;22.80;47.30;;;;;;6158109;28;87844;-59
2023/12/12 01:47:27;;;;;;;1.55;0.90;;;22.80;47.30;;;;;;6166230;28;80630;-59
2023/12/12 01:50:27;;;;;;;1.38;1.10;;;22.80;47.20;;;;;;6161693;28;83337;-59
2023/12/12 01:53:28;;;;;;;2.50;1.00;;;22.80;47.20;;;;;;6155835;28;80746;-59
2023/12/12 01:56:28;;;;;;;0.80;0.80;;;22.80;47.30;;;;;;6154463;28;80725;-58
2023/12/12 01:59:29;;;;;;;1.83;1.17;;;22.80;47.40;;;;;;6158581;28;80519;-61
2023/12/12 02:02:29;;;;;;;1.40;0.95;;;22.80;47.40;;;;;;6165036;28;81769;-61
2023/12/12 02:05:30;;;;;;;1.88;0.80;;;22.80;47.60;;;;;;6169495;28;80836;-61
2023/12/12 02:08:30;;;;;;;1.13;0.85;;;22.80;47.60;;;;;;6177126;28;80595;-61
2023/12/12 02:11:31;;;;;;;1.70;0.90;;;22.80;47.50;;;;;;6178480;28;80666;-61
2023/12/12 02:14:33;;;;;;;1.98;1.10;;;22.80;47.60;;;;;;6175913;28;81556;-61
2023/12/12 02:17:34;;;;;;;2.20;1.30;;;22.80;47.40;;;;;;6177103;28;80410;-58
2023/12/12 02:20:34;;;;;;;3.03;1.27;;;22.80;47.60;;;;;;6165518;28;81626;-58
2023/12/12 02:23:35;;;;;;;2.60;1.02;;;22.80;47.60;;;;;;6166849;28;81297;-59
2023/12/12 02:26:35;;;;;;;2.75;1.33;;;22.80;47.50;;;;;;6173706;28;80543;-58
2023/12/12 02:29:36;;;;;;;1.33;1.05;;;22.80;47.60;;;;;;6170473;28;81408;-58
2023/12/12 02:32:36;;;;;;;2.40;1.25;;;22.80;47.60;;;;;;6169583;28;80334;-59
2023/12/12 02:35:36;;;;;;;1.88;0.98;;;22.80;47.60;;;;;;6174221;28;81999;-58
2023/12/12 02:38:37;;;;;;;3.67;1.23;;;22.80;47.80;;;;;;6173904;28;80634;-59
2023/12/12 02:41:37;;;;;;;2.45;1.00;;;22.80;47.60;;;;;;6176610;28;80804;-58
2023/12/12 02:44:38;;;;;;;1.83;1.35;;;22.80;47.60;;;;;;6174664;28;80695;-58
2023/12/12 02:47:38;;;;;;;1.33;1.15;;;22.80;47.40;;;;;;6175211;28;80593;-58
2023/12/12 02:50:39;;;;;;;1.70;1.17;;;22.80;47.30;;;;;;6174446;28;80751;-58
2023/12/12 02:53:39;;;;;;;1.83;1.27;;;22.80;47.20;;;;;;6174763;28;81894;-57
2023/12/12 02:56:40;;;;;;;1.77;1.20;;;22.80;47.10;;;;;;6173931;28;81502;-59
2023/12/12 02:59:41;;;;;;;2.03;1.15;;;22.80;47.20;;;;;;6171717;28;83343;-58
2023/12/12 03:02:41;;;;;;;1.63;1.05;;;22.80;47.20;;;;;;6168731;28;80411;-58
2023/12/12 03:05:42;;;;;;;1.83;1.17;;;22.80;47.10;;;;;;6157691;28;81256;-58
2023/12/12 03:08:42;;;;;;;1.40;1.10;;;22.80;47.00;;;;;;6177175;28;80933;-59
2023/12/12 03:11:43;;;;;;;2.30;1.10;;;22.80;47.00;;;;;;6176190;28;81387;-67
2023/12/12 03:14:43;;;;;;;1.95;1.15;;;22.80;46.90;;;;;;6177163;28;80513;-67
2023/12/12 03:17:44;;;;;;;1.27;0.98;;;22.80;47.00;;;;;;6173766;28;80671;-67
2023/12/12 03:20:44;;;;;;;1.48;1.08;;;22.80;47.00;;;;;;6147173;28;84381;-67
2023/12/12 03:23:45;;;;;;;2.58;1.25;;;22.80;47.00;;;;;;6151685;28;80885;-67
2023/12/12 03:26:45;;;;;;;2.15;0.88;;;22.80;47.10;;;;;;6164660;28;80992;-66
2023/12/12 03:29:46;;;;;;;1.35;1.00;;;22.80;47.10;;;;;;6168174;28;80401;-67
2023/12/12 03:32:46;;;;;;;1.77;1.00;;;22.80;47.10;;;;;;6158523;28;80721;-66
2023/12/12 03:35:47;;;;;;;1.70;1.08;;;22.80;47.20;;;;;;6159636;28;82160;-65
2023/12/12 03:38:48;;;;;;;1.65;1.02;;;22.80;47.10;;;;;;6159062;28;80384;-66
2023/12/12 03:41:48;;;;;;;1.90;1.08;;;22.80;47.20;;;;;;6176687;28;82701;-71
2023/12/12 03:44:49;;;;;;;1.38;0.90;;;22.80;47.30;;;;;;6176650;28;80987;-70
2023/12/12 03:47:49;;;;;;;3.58;1.33;;;22.80;47.40;;;;;;6176799;28;80447;-67
2023/12/12 03:50:50;;;;;;;3.22;1.30;;;22.80;47.30;;;;;;6178614;28;80777;-68
2023/12/12 03:53:50;;;;;;;2.50;1.50;;;22.80;47.70;;;;;;6159404;28;80737;-68
2023/12/12 03:56:51;;;;;;;1.98;1.05;;;22.80;47.10;;;;;;6153170;28;80775;-69
2023/12/12 03:59:51;;;;;;;2.55;1.40;;;22.80;47.10;;;;;;6177062;28;85946;-68
2023/12/12 04:02:52;;;;;;;1.90;1.17;;;22.80;46.70;;;;;;6161386;28;82313;-67
2023/12/12 04:05:52;;;;;;;2.53;1.30;;;22.90;47.50;;;;;;6155515;28;80520;-56
2023/12/12 04:08:53;;;;;;;3.90;1.15;;;22.90;47.40;;;;;;6160985;28;80627;-56
2023/12/12 04:11:53;;;;;;;4.80;1.52;;;22.80;47.90;;;;;;6167720;28;80048;-57
2023/12/12 04:14:54;;;;;;;2.50;1.10;;;22.90;47.70;;;;;;6165179;28;80553;-60
2023/12/12 04:17:55;;;;;;;1.98;0.98;;;22.90;48.10;;;;;;6159746;28;80389;-59
2023/12/12 04:20:55;;;;;;;2.28;0.80;;;22.90;47.70;;;;;;6161411;28;81581;-61
2023/12/12 04:23:56;;;;;;;0.88;0.80;;;22.90;47.20;;;;;;6164084;28;81219;-58
2023/12/12 04:26:56;;;;;;;14.18;1.63;;;22.90;47.00;;;;;;6159526;28;81323;-58
2023/12/12 04:29:57;;;;;;;2.45;1.10;;;22.90;46.60;;;;;;6166868;28;81746;-60
2023/12/12 04:32:57;;;;;;;1.40;1.10;;;22.90;46.50;;;;;;6174177;28;80818;-60
2023/12/12 04:35:58;;;;;;;4.03;1.15;;;22.90;46.30;;;;;;6175195;28;80499;-57
2023/12/12 04:38:58;;;;;;;2.15;1.20;;;23.00;46.10;;;;;;6174342;28;80489;-57
2023/12/12 04:41:59;;;;;;;2.65;1.23;;;23.00;46.00;;;;;;6169771;28;81148;-58
2023/12/12 04:44:59;;;;;;;2.30;1.23;;;23.00;46.20;;;;;;6166774;28;80417;-58
2023/12/12 04:48:00;;;;;;;2.17;1.20;;;23.10;46.20;;;;;;6168345;28;82887;-59
2023/12/12 04:51:01;;;;;;;2.20;1.23;;;23.10;45.90;;;;;;6161804;28;80578;-59
2023/12/12 04:54:01;;;;;;;2.25;1.10;;;23.10;45.70;;;;;;6161232;28;81016;-56
2023/12/12 04:57:02;;;;;;;3.85;1.00;;;23.10;45.80;;;;;;6167731;28;80745;-55
2023/12/12 05:00:03;;;;;;;3.38;1.20;;;23.10;45.80;;;;;;6171483;28;80771;-53
2023/12/12 05:03:04;;;;;;;3.47;1.50;;;23.20;45.90;;;;;;6167815;28;81152;-63
2023/12/12 05:06:04;;;;;;;1.65;0.93;;;23.20;46.20;;;;;;6155205;28;80272;-60
2023/12/12 05:09:05;;;;;;;1.25;1.00;;;23.20;46.70;;;;;;6154961;28;80484;-56
2023/12/12 05:12:05;;;;;;;1.67;1.13;;;23.20;47.10;;;;;;6165714;28;80859;-62
2023/12/12 05:15:05;;;;;;;1.17;0.90;;;23.30;48.10;;;;;;6162355;28;82022;-60
2023/12/12 05:18:07;;;;;;;3.33;1.20;;;23.30;47.90;;;;;;6155497;28;81151;-59
2023/12/12 05:21:08;;;;;;;9.13;1.33;;;23.30;47.70;;;;;;6168153;28;80666;-58
2023/12/12 05:24:08;;;;;;;1.60;1.20;;;23.30;47.90;;;;;;6159832;28;80399;-54
2023/12/12 05:27:09;;;;;;;1.42;0.90;;;23.30;47.90;;;;;;6163790;28;81368;-58
2023/12/12 05:30:11;;;;;;;2.58;0.90;;;23.40;48.40;;;;;;6160790;28;80292;-54
2023/12/12 05:33:12;;;;;;;5.05;1.20;;;23.40;47.90;;;;;;6166572;28;80521;-59
2023/12/12 05:36:13;;;;;;;3.92;1.08;;;23.40;48.00;;;;;;6170648;28;85893;-58
2023/12/12 05:39:14;;;;;;;10.90;1.55;;;23.40;48.10;;;;;;6162241;28;80529;-60
2023/12/12 05:42:15;;;;;;;5.38;1.10;;;23.40;48.20;;;;;;6153994;28;84587;-58
2023/12/12 05:45:17;;;;;;;6.03;1.40;;;23.40;48.00;;;;;;6156733;28;81431;-57
2023/12/12 05:48:17;;;;;;;2.20;1.50;;;23.40;47.90;;;;;;6154063;28;80572;-57
2023/12/12 05:51:18;;;;;;;2.90;0.93;;;23.40;47.90;;;;;;6147474;28;80884;-56
2023/12/12 05:54:18;;;;;;;3.38;1.05;;;23.30;47.90;;;;;;6156420;28;81409;-58
2023/12/12 05:57:19;;;;;;;4.00;1.40;;;23.30;47.90;;;;;;6159923;28;81367;-60
2023/12/12 06:00:19;;;;;;;3.42;1.02;;;23.30;47.70;;;;;;6164192;28;80890;-61
2023/12/12 06:03:20;;;;;;;6.28;1.13;;;23.30;47.80;;;;;;6161787;28;81051;-60
2023/12/12 06:06:21;;;;;;;9.00;1.30;;;23.30;47.70;;;;;;6162786;28;80665;-61
2023/12/12 06:09:21;;;;;;;3.33;1.30;;;23.20;47.50;;;;;;6157327;28;80146;-60
2023/12/12 06:12:22;;;;;;;2.22;1.17;;;23.20;47.50;;;;;;6154046;28;82852;-61
2023/12/12 06:15:22;;;;;;;6.00;1.10;;;23.20;47.50;;;;;;6163942;28;80120;-60
2023/12/12 06:18:23;;;;;;;1.75;1.50;;;23.20;47.40;;;;;;6154258;28;80238;-60
2023/12/12 06:21:24;;;;;;;4.40;1.45;;;23.20;47.40;;;;;;6154417;28;80593;-60
2023/12/12 06:24:24;;;;;;;2.00;1.30;;;23.20;47.40;;;;;;6161583;28;81618;-60
2023/12/12 06:27:25;;;;;;;1.38;1.00;;;23.20;47.40;;;;;;6153803;28;81399;-61
2023/12/12 06:30:25;;;;;;;4.78;1.63;;;23.20;47.20;;;;;;6162843;28;82333;-61
2023/12/12 06:33:28;;;;;;;6.30;1.52;;;23.10;47.10;;;;;;6156581;28;81935;-60
2023/12/12 06:36:29;;;;;;;1.90;1.00;;;23.10;46.90;;;;;;6163429;28;82297;-59
2023/12/12 06:39:29;;;;;;;2.88;1.80;;;23.10;46.80;;;;;;6158930;28;80974;-60
2023/12/12 06:42:30;;;;;;;2.13;1.00;;;23.10;46.90;;;;;;6152809;28;80478;-60
2023/12/12 06:45:31;;;;;;;2.45;1.40;;;23.10;46.70;;;;;;6156051;28;81600;-60
2023/12/12 06:48:31;;;;;;;2.40;1.55;;;23.10;47.30;;;;;;6153621;28;81538;-60
2023/12/12 06:51:32;;;;;;;2.08;1.30;;;23.10;46.80;;;;;;6152328;28;82402;-58
2023/12/12 06:54:32;;;;;;;3.80;1.80;;;23.00;46.90;;;;;;6151512;28;82130;-57
2023/12/12 06:57:33;;;;;;;1.42;1.00;;;23.00;47.00;;;;;;6153390;28;81557;-57
2023/12/12 07:00:33;;;;;;;2.65;1.30;;;23.00;46.70;;;;;;6155822;28;80895;-57
2023/12/12 07:03:34;;;;;;;4.43;1.30;;;23.00;46.80;;;;;;6154205;28;80685;-58
2023/12/12 07:06:34;;;;;;;2.67;1.20;;;23.00;46.30;;;;;;6176347;28;82255;-55
2023/12/12 07:09:35;;;;;;;2.15;1.20;;;22.90;46.40;;;;;;6175579;28;81406;-65
2023/12/12 07:12:35;;;;;;;1.83;1.10;;;22.90;46.50;;;;;;6175314;28;80479;-65
2023/12/12 07:15:36;;;;;;;3.00;1.35;;;22.90;46.20;;;;;;6155885;28;80714;-65
2023/12/12 07:18:36;;;;;;;3.25;1.20;;;22.90;46.10;;;;;;6167660;28;80397;-65
2023/12/12 07:21:37;;;;;;;3.40;1.50;;;22.90;46.10;;;;;;6159499;28;81468;-65
2023/12/12 07:24:37;;;;;;;2.72;1.50;;;22.90;45.80;;;;;;6149961;28;80658;-65
2023/12/12 07:27:38;;;;;;;5.50;1.50;;;22.90;45.80;;;;;;6155719;28;82293;-64
2023/12/12 07:30:38;;;;;;;2.03;1.30;;;22.90;45.70;;;;;;6153055;28;80736;-66
2023/12/12 07:33:39;;;;;;;1.35;1.10;;;22.90;45.70;;;;;;6160721;28;81598;-68
2023/12/12 07:36:41;;;;;;;2.58;1.30;;;22.90;45.60;;;;;;6162691;28;81849;-66
2023/12/12 07:39:41;;;;;;;2.17;1.30;;;22.90;45.40;;;;;;6169271;28;81584;-66
2023/12/12 07:42:42;;;;;;;3.53;1.80;;;22.90;45.60;;;;;;6169167;28;80325;-65
2023/12/12 07:45:42;;;;;;;1.85;1.25;;;22.90;45.40;;;;;;6175868;28;80301;-66
2023/12/12 07:48:43;;;;;;;1.63;1.27;;;22.80;45.40;;;;;;6174237;28;82437;-67
2023/12/12 07:51:43;;;;;;;3.97;1.70;;;22.80;45.30;;;;;;6151810;28;80369;-66
2023/12/12 07:54:44;;;;;;;3.63;2.05;;;22.80;45.30;;;;;;6150846;28;80718;-66
2023/12/12 07:57:44;;;;;;;2.60;1.55;;;22.80;45.20;;;;;;6163634;28;80472;-66
2023/12/12 08:00:45;;;;;;;1.85;1.30;;;22.80;45.10;;;;;;6151567;28;80875;-66
2023/12/12 08:03:45;;;;;;;2.97;1.52;;;22.80;45.00;;;;;;6152205;28;81663;-65
2023/12/12 08:06:45;;;;;;;2.63;1.38;;;22.90;45.00;;;;;;6174885;28;80489;-60
2023/12/12 08:09:46;;;;;;;3.60;1.73;;;22.90;45.00;;;;;;6175656;28;81692;-60
2023/12/12 08:12:47;;;;;;;2.95;1.60;;;23.00;44.80;;;;;;6174724;28;80799;-60
2023/12/12 08:15:47;;;;;;;2.97;1.40;;;23.10;44.80;;;;;;6166406;28;81538;-60
2023/12/12 08:18:48;;;;;;;2.55;1.38;;;23.20;44.90;;;;;;6169234;28;82802;-60
2023/12/12 08:21:48;;;;;;;2.70;1.42;;;23.20;45.00;;;;;;6167774;28;80789;-61
2023/12/12 08:24:51;;;;;;;3.90;1.88;;;23.30;45.10;;;;;;6175250;28;80584;-60
2023/12/12 08:27:52;;;;;;;3.38;1.80;;;23.40;45.20;;;;;;6159115;28;86166;-61
2023/12/12 08:30:52;;;;;;;5.03;1.90;;;23.50;45.00;;;;;;6172780;28;80199;-61
2023/12/12 08:33:53;;;;;;;3.38;1.67;;;23.60;44.90;;;;;;6175724;28;80903;-60
2023/12/12 08:36:53;;;;;;;3.25;1.73;;;23.60;44.90;;;;;;6169729;28;80268;-59
2023/12/12 08:39:54;;;;;;;2.72;1.52;;;23.70;44.10;;;;;;6154352;28;81479;-60
2023/12/12 08:42:54;;;;;;;3.08;1.65;;;23.80;44.00;;;;;;6170434;28;80030;-57
2023/12/12 08:45:56;;;;;;;2.30;1.40;;;23.80;43.80;;;;;;6155107;28;80427;-57
2023/12/12 08:48:56;;;;;;;2.38;1.60;;;23.90;43.90;;;;;;6156886;28;81165;-54
2023/12/12 08:51:57;;;;;;;3.85;2.00;;;23.90;43.70;;;;;;6165111;28;82626;-57
2023/12/12 08:54:57;;;;;;;4.45;1.83;;;24.00;43.70;;;;;;6166561;28;80483;-57
2023/12/12 08:57:58;;;;;;;3.67;1.98;;;24.10;43.70;;;;;;6154283;28;80843;-56
2023/12/12 09:00:59;;;;;;;2.90;1.77;;;24.10;43.60;;;;;;6176098;28;81914;-59
2023/12/12 09:03:59;;;;;;;3.42;1.75;;;24.20;43.60;;;;;;6160619;28;80505;-60
2023/12/12 09:07:00;;;;;;;3.42;1.85;;;24.30;43.50;;;;;;6155935;28;80251;-61
2023/12/12 09:10:00;;;;;;;3.75;1.70;;;24.30;43.50;;;;;;6177873;28;80599;-60
2023/12/12 09:13:00;;;;;;;4.28;2.25;;;24.40;43.50;;;;;;6178344;28;81182;-60
2023/12/12 09:16:01;;;;;;;3.22;1.75;;;24.40;43.40;;;;;;6177646;28;81465;-60
2023/12/12 09:19:01;;;;;;;3.17;1.80;;;24.60;43.40;;;;;;6176993;28;81306;-60
2023/12/12 09:22:02;;;;;;;3.58;1.90;;;24.60;43.30;;;;;;6176773;28;80539;-60
2023/12/12 09:25:02;;;;;;;3.63;2.00;;;24.70;43.30;;;;;;6176581;28;80833;-60
2023/12/12 09:28:03;;;;;;;3.35;2.00;;;24.70;43.30;;;;;;6169823;28;82732;-60
2023/12/12 09:31:04;;;;;;;3.38;2.25;;;24.60;43.30;;;;;;6166406;28;83342;-61
2023/12/12 09:34:04;;;;;;;2.83;2.20;;;24.50;43.40;;;;;;6166817;28;80695;-60
2023/12/12 09:37:05;;;;;;;2.70;1.60;;;24.40;43.50;;;;;;6153829;28;81626;-61
2023/12/12 09:40:05;;;;;;;5.35;2.13;;;24.30;43.70;;;;;;6157573;28;82678;-61
2023/12/12 09:43:06;;;;;;;6.35;2.60;;;24.30;43.90;;;;;;6166009;28;81007;-61
2023/12/12 09:46:07;;;;;;;5.07;1.92;;;24.40;43.90;;;;;;6153301;28;81953;-61
2023/12/12 09:49:08;;;;;;;4.07;2.20;;;24.50;43.90;;;;;;6154594;28;82810;-60
2023/12/12 09:52:09;;;;;;;3.03;1.80;;;24.50;43.70;;;;;;6154164;28;80606;-60
2023/12/12 09:55:10;;;;;;;2.50;1.58;;;24.60;43.60;;;;;;6170114;28;81856;-65
2023/12/12 09:58:10;;;;;;;3.30;1.85;;;24.60;43.50;;;;;;6178978;28;80556;-65
2023/12/12 10:01:11;;;;;;;3.08;1.77;;;24.70;43.40;;;;;;6175844;28;80533;-66
2023/12/12 10:04:11;;;;;;;3.75;1.80;;;24.80;43.50;;;;;;6164443;28;81706;-65
2023/12/12 10:07:12;;;;;;;3.33;2.03;;;24.70;43.30;;;;;;6164647;28;80928;-66
2023/12/12 10:10:12;;;;;;;3.15;2.03;;;24.80;43.40;;;;;;6163169;28;80842;-65
2023/12/12 10:13:14;;;;;;;3.85;1.65;;;24.90;43.50;;;;;;6154457;28;81215;-66
2023/12/12 10:16:14;;;;;;;3.45;1.73;;;25.00;43.40;;;;;;6155204;28;80438;-66
2023/12/12 10:19:14;;;;;;;3.42;1.67;;;25.10;43.10;;;;;;6154745;28;81121;-66
2023/12/12 10:22:15;;;;;;;2.42;1.92;;;25.10;43.20;;;;;;6153833;28;80887;-67
2023/12/12 10:25:17;;;;;;;3.40;1.75;;;25.30;43.20;;;;;;6158083;28;80738;-67
2023/12/12 10:28:18;;;;;;;3.55;1.88;;;25.50;43.10;;;;;;6158837;28;81227;-66
2023/12/12 10:31:19;;;;;;;3.33;2.08;;;25.60;43.10;;;;;;6166398;28;80654;-67
2023/12/12 10:34:20;;;;;;;4.80;1.60;;;25.70;42.90;;;;;;6176689;28;80451;-61
2023/12/12 10:37:22;;;;;;;2.55;1.80;;;25.50;42.50;;;;;;6178167;28;80351;-61
2023/12/12 10:40:23;;;;;;;3.20;1.63;;;25.40;42.70;;;;;;6154752;28;81231;-61
2023/12/12 10:43:23;;;;;;;2.38;1.73;;;25.20;42.80;;;;;;6166042;28;81678;-60
2023/12/12 10:46:24;;;;;;;3.78;1.92;;;25.00;43.00;;;;;;6161147;28;80475;-59
2023/12/12 10:49:24;;;;;;;4.32;1.83;;;24.90;44.20;;;;;;6177423;28;80782;-60
2023/12/12 10:52:25;;;;;;;4.30;1.85;;;24.80;43.60;;;;;;6176717;28;80674;-66
2023/12/12 10:55:25;;;;;;;3.15;1.75;;;24.70;43.80;;;;;;6176915;28;81481;-67
2023/12/12 10:58:25;;;;;;;3.63;2.03;;;24.70;43.90;;;;;;6175263;28;80980;-65
2023/12/12 11:01:26;;;;;;;2.65;1.73;;;24.60;43.90;;;;;;6177093;28;81068;-66
2023/12/12 11:04:27;;;;;;;4.70;1.92;;;24.50;43.80;;;;;;6162324;28;80781;-66
2023/12/12 11:07:28;;;;;;;3.88;2.15;;;24.40;43.60;;;;;;6163874;28;81517;-67
2023/12/12 11:10:28;;;;;;;3.22;1.80;;;24.40;43.60;;;;;;6168811;28;83088;-60
2023/12/12 11:13:29;;;;;;;3.70;2.00;;;24.30;43.40;;;;;;6177132;28;80973;-60
2023/12/12 11:16:30;;;;;;;3.15;1.80;;;24.20;43.30;;;;;;6175341;28;82437;-60
2023/12/12 11:19:31;;;;;;;2.63;1.63;;;24.20;43.40;;;;;;6177560;28;81040;-60
2023/12/12 11:22:31;;;;;;;6.85;1.88;;;24.20;43.40;;;;;;6165761;28;80560;-61
2023/12/12 11:25:32;;;;;;;2.95;1.77;;;24.10;43.60;;;;;;6172370;28;81071;-62
2023/12/12 11:28:35;;;;;;;3.58;1.95;;;24.00;43.60;;;;;;6159341;28;80552;-57
2023/12/12 11:31:36;;;;;;;4.03;1.80;;;24.00;43.80;;;;;;6168080;28;81041;-54
2023/12/12 11:34:36;;;;;;;3.47;1.67;;;24.00;43.90;;;;;;6164546;28;81199;-58
2023/12/12 11:37:37;;;;;;;5.03;1.80;;;23.90;43.80;;;;;;6155808;28;81128;-58
2023/12/12 11:40:37;;;;;;;3.50;2.00;;;23.80;43.80;;;;;;6164712;28;81206;-58
2023/12/12 11:43:39;;;;;;;4.85;2.42;;;23.80;43.90;;;;;;6152346;28;81898;-57
2023/12/12 11:46:40;;;;;;;4.15;1.70;;;23.80;43.90;;;;;;6152238;28;80879;-58
2023/12/12 11:49:40;;;;;;;4.45;2.10;;;23.70;43.90;;;;;;6163864;28;80345;-57
2023/12/12 11:52:42;;;;;;;3.60;2.03;;;23.70;44.00;;;;;;6155661;28;80268;-57
2023/12/12 11:55:45;;;;;;;2.47;1.63;;;23.70;44.00;;;;;;6154622;28;80864;-57
2023/12/12 11:58:45;;;;;;;3.20;1.63;;;23.60;43.90;;;;;;6174485;28;82029;-58
2023/12/12 12:01:46;;;;;;;4.32;2.00;;;23.60;44.00;;;;;;6175719;28;80918;-58
2023/12/12 12:04:46;;;;;;;3.20;2.03;;;23.60;43.90;;;;;;6165514;28;80675;-61
2023/12/12 12:07:46;;;;;;;4.32;2.00;;;23.60;43.90;;;;;;6154049;28;80346;-61
2023/12/12 12:10:47;;;;;;;4.40;2.33;;;23.60;43.80;;;;;;6152136;28;81794;-62
2023/12/12 12:13:47;;;;;;;2.60;1.67;;;23.50;43.90;;;;;;6152506;28;80899;-59
2023/12/12 12:16:48;;;;;;;4.95;2.38;;;23.50;43.80;;;;;;6166598;28;80917;-60
2023/12/12 12:19:48;;;;;;;3.47;2.03;;;23.50;43.80;;;;;;6155372;28;81310;-61
2023/12/12 12:22:49;;;;;;;4.47;2.05;;;23.50;43.90;;;;;;6151828;28;80830;-61
2023/12/12 12:25:50;;;;;;;3.08;2.20;;;23.50;43.90;;;;;;6152326;28;80712;-61
2023/12/12 12:28:50;;;;;;;3.03;1.77;;;23.50;43.90;;;;;;6164695;28;80662;-61
2023/12/12 12:31:51;;;;;;;3.95;2.10;;;23.50;43.90;;;;;;6151188;28;80611;-61
2023/12/12 12:34:51;;;;;;;3.67;2.28;;;23.50;43.90;;;;;;6168956;28;80509;-61
2023/12/12 12:37:53;;;;;;;3.95;2.15;;;23.40;43.80;;;;;;6162583;28;80887;-62
2023/12/12 12:40:54;;;;;;;5.25;2.08;;;23.40;43.90;;;;;;6174314;28;80968;-67
2023/12/12 12:43:55;;;;;;;3.28;1.90;;;23.40;43.80;;;;;;6162799;28;81783;-65
2023/12/12 12:46:57;;;;;;;3.17;1.70;;;23.40;43.80;;;;;;6152916;28;80060;-65
2023/12/12 12:50:01;;;;;;;4.15;2.45;;;23.40;43.80;;;;;;6156244;28;81808;-64
2023/12/12 12:53:03;;;;;;;4.63;2.13;;;23.40;43.80;;;;;;6152235;28;80239;-66
2023/12/12 12:56:03;;;;;;;4.32;2.05;;;23.40;43.70;;;;;;6174969;28;82372;-66
2023/12/12 12:59:04;;;;;;;3.08;1.73;;;23.40;43.60;;;;;;6163515;28;80833;-66
2023/12/12 13:02:04;;;;;;;6.93;2.47;;;23.40;43.60;;;;;;6158291;28;81020;-66
2023/12/12 13:05:05;;;;;;;4.30;1.83;;;23.40;43.50;;;;;;6170064;28;80540;-66
2023/12/12 13:08:05;;;;;;;4.13;2.10;;;23.40;43.50;;;;;;6152140;28;79992;-66
2023/12/12 13:11:06;;;;;;;3.53;1.77;;;23.40;43.50;;;;;;6163845;28;80850;-67
2023/12/12 13:14:06;;;;;;;6.18;1.98;;;23.30;43.50;;;;;;6158867;28;80995;-67
2023/12/12 13:17:08;;;;;;;3.05;2.10;;;23.40;43.70;;;;;;6176639;28;80943;-61
2023/12/12 13:20:09;;;;;;;3.25;1.90;;;23.40;43.70;;;;;;6172953;28;80612;-60
2023/12/12 13:23:10;;;;;;;3.38;2.20;;;23.40;43.70;;;;;;6177840;28;80992;-60
2023/12/12 13:26:10;;;;;;;6.28;2.20;;;23.40;43.70;;;;;;6173198;28;81060;-60
2023/12/12 13:29:11;;;;;;;3.40;2.17;;;23.40;43.80;;;;;;6167007;28;80822;-60
2023/12/12 13:32:11;;;;;;;3.63;2.03;;;23.40;43.80;;;;;;6164501;28;82298;-59
2023/12/12 13:35:14;;;;;;;4.85;2.22;;;23.40;43.80;;;;;;6161953;28;81815;-55
2023/12/12 13:38:14;;;;;;;4.65;2.20;;;23.50;43.80;;;;;;6175514;28;80545;-58
2023/12/12 13:41:15;;;;;;;3.67;2.13;;;23.50;43.80;;;;;;6172444;28;80883;-57
2023/12/12 13:44:16;;;;;;;3.65;2.13;;;23.50;43.90;;;;;;6163984;28;80546;-58
2023/12/12 13:47:17;;;;;;;6.03;2.42;;;23.50;43.80;;;;;;6172776;28;81841;-58
2023/12/12 13:50:18;;;;;;;4.88;2.40;;;23.50;43.60;;;;;;6177605;28;80455;-59
2023/12/12 13:53:18;;;;;;;5.20;2.40;;;23.50;43.80;;;;;;6159108;28;80833;-59
2023/12/12 13:56:19;;;;;;;4.47;2.30;;;23.50;43.80;;;;;;6172833;28;80627;-57
2023/12/12 13:59:19;;;;;;;6.80;2.40;;;23.50;43.70;;;;;;6177207;28;80351;-53
2023/12/12 14:02:20;;;;;;;5.18;2.80;;;23.60;43.90;;;;;;6165840;28;80531;-54
2023/12/12 14:05:20;;;;;;;7.72;2.28;;;23.60;43.50;;;;;;6163197;28;82013;-52
2023/12/12 14:08:21;;;;;;;25.42;9.95;;;23.60;43.90;;;;;;6166116;28;80547;-60
2023/12/12 14:11:24;;;;;;;93.10;40.30;;;23.70;44.20;;;;;;6148290;28;84565;-59
2023/12/12 14:14:25;;;;;;;116.35;55.90;;;23.60;44.40;;;;;;6170058;28;83690;-59
2023/12/12 14:17:25;;;;;;;171.85;81.60;;;23.70;44.20;;;;;;6175152;28;83774;-60
2023/12/12 14:20:26;;;;;;;210.90;94.78;;;23.70;44.50;;;;;;6156428;28;85049;-59
2023/12/12 14:23:26;;;;;;;264.65;116.05;;;23.70;45.00;;;;;;6157135;28;83732;-59
2023/12/12 14:26:27;;;;;;;280.67;122.35;;;23.80;44.40;;;;;;6157415;28;86776;-61
2023/12/12 14:29:27;;;;;;;236.82;102.20;;;23.80;44.60;;;;;;6172233;28;86701;-58
2023/12/12 14:32:28;;;;;;;245.32;111.85;;;23.80;44.40;;;;;;6160325;28;86121;-60
2023/12/12 14:35:28;;;;;;;276.25;123.00;;;23.80;44.30;;;;;;6164133;28;86138;-63
2023/12/12 14:38:29;;;;;;;277.13;122.13;;;23.80;44.20;;;;;;6157272;28;85706;-62
2023/12/12 14:41:30;;;;;;;317.17;136.80;;;23.80;44.20;;;;;;6154008;28;85849;-59
2023/12/12 14:44:30;;;;;;;321.20;141.45;;;23.80;44.20;;;;;;6153693;28;85602;-62
2023/12/12 14:47:31;;;;;;;325.98;140.15;;;23.90;44.30;;;;;;6158190;28;85701;-62
2023/12/12 14:50:31;;;;;;;283.20;121.45;;;23.80;44.40;;;;;;6170408;28;87762;-68
2023/12/12 14:53:32;;;;;;;259.80;106.68;;;23.80;44.60;;;;;;6169266;28;92506;-71
2023/12/12 14:56:35;;;;;;;229.55;102.50;;;23.90;44.60;;;;;;6167960;28;85839;-69
2023/12/12 14:59:37;;;;;;;203.35;92.90;;;23.90;44.80;;;;;;6170796;28;86382;-73
2023/12/12 15:02:38;;;;;;;184.05;79.32;;;23.90;44.70;;;;;;6156505;28;85303;-70
2023/12/12 15:05:38;;;;;;;175.27;77.13;;;23.90;44.80;;;;;;6167170;28;83185;-72
2023/12/12 15:08:39;;;;;;;160.85;71.03;;;23.90;44.90;;;;;;6172986;28;84232;-62
2023/12/12 15:11:40;;;;;;;142.63;64.40;;;23.90;44.80;;;;;;6171194;28;87998;-62
2023/12/12 15:14:40;;;;;;;142.85;62.05;;;23.90;44.90;;;;;;6165430;28;83283;-60
2023/12/12 15:17:41;;;;;;;120.57;52.17;;;23.90;44.90;;;;;;6160670;28;83263;-60
2023/12/12 15:20:42;;;;;;;110.93;49.70;;;23.90;44.70;;;;;;6157880;28;83189;-60
2023/12/12 15:23:42;;;;;;;101.75;43.53;;;23.90;44.70;;;;;;6171825;28;82945;-59
2023/12/12 15:26:43;;;;;;;97.65;43.00;;;23.90;44.40;;;;;;6157854;28;83210;-59
2023/12/12 15:29:44;;;;;;;90.00;39.30;;;23.80;44.80;;;;;;6164292;28;85579;-61
2023/12/12 15:32:45;;;;;;;80.22;35.38;;;23.80;44.80;;;;;;6159507;28;83151;-60
2023/12/12 15:35:45;;;;;;;74.85;35.38;;;23.80;44.70;;;;;;6157533;28;83076;-60